sensor_id;sensor_type;location;lat;lon;timestamp;temperature;humidity
20845;DHT22;10583;49.084;8.646;2023-12-28T00:01:46;2.20;99.90
20845;DHT22;10583;49.084;8.646;2023-12-28T00:04:14;2.10;99.90
20845;DHT22;10583;49.084;8.646;2023-12-28T00:06:41;2.00;99.90
20845;DHT22;10583;49.084;8.646;2023-12-28T00:09:07;1.90;99.90
20845;DHT22;10583;49.084;8.646;2023-12-28T00:11:35;2.00;99.90
20845;DHT22;10583;49.084;8.646;2023-12-28T00:14:02;2.00;99.90
20845;DHT22;10583;49.084;8.646;2023-12-28T00:16:30;1.90;99.90
20845;DHT22;10583;49.084;8.646;2023-12-28T00:18:58;1.90;99.90
20845;DHT22;10583;49.084;8.646;2023-12-28T00:21:26;1.90;99.90
20845;DHT22;10583;49.084;8.646;2023-12-28T00:23:53;1.90;99.90
20845;DHT22;10583;49.084;8.646;2023-12-28T00:26:20;1.90;99.90
20845;DHT22;10583;49.084;8.646;2023-12-28T00:28:46;1.90;99.90
20845;DHT22;10583;49.084;8.646;2023-12-28T00:31:13;1.80;99.90
20845;DHT22;10583;49.084;8.646;2023-12-28T00:33:40;1.80;99.90
20845;DHT22;10583;49.084;8.646;2023-12-28T00:36:08;1.80;99.90
20845;DHT22;10583;49.084;8.646;2023-12-28T00:38:36;1.80;99.90
20845;DHT22;10583;49.084;8.646;2023-12-28T00:41:02;1.80;99.90
20845;DHT22;10583;49.084;8.646;2023-12-28T00:43:29;1.80;99.90
20845;DHT22;10583;49.084;8.646;2023-12-28T00:45:56;1.80;99.90
20845;DHT22;10583;49.084;8.646;2023-12-28T00:48:22;1.80;99.90
20845;DHT22;10583;49.084;8.646;2023-12-28T00:50:49;1.80;99.90
20845;DHT22;10583;49.084;8.646;2023-12-28T00:53:16;1.80;99.90
20845;DHT22;10583;49.084;8.646;2023-12-28T00:55:44;1.80;99.90
20845;DHT22;10583;49.084;8.646;2023-12-28T00:58:10;1.70;99.90
20845;DHT22;10583;49.084;8.646;2023-12-28T01:00:37;1.70;99.90
20845;DHT22;10583;49.084;8.646;2023-12-28T01:03:04;1.70;99.90
20845;DHT22;10583;49.084;8.646;2023-12-28T01:05:30;1.70;99.90
20845;DHT22;10583;49.084;8.646;2023-12-28T01:07:57;1.60;99.90
20845;DHT22;10583;49.084;8.646;2023-12-28T01:10:24;1.60;99.90
20845;DHT22;10583;49.084;8.646;2023-12-28T01:12:52;1.60;99.90
20845;DHT22;10583;49.084;8.646;2023-12-28T01:15:18;1.70;99.90
20845;DHT22;10583;49.084;8.646;2023-12-28T01:17:46;1.60;99.90
20845;DHT22;10583;49.084;8.646;2023-12-28T01:20:13;1.70;99.90
20845;DHT22;10583;49.084;8.646;2023-12-28T01:22:40;1.60;99.90
20845;DHT22;10583;49.084;8.646;2023-12-28T01:25:07;1.60;99.90
20845;DHT22;10583;49.084;8.646;2023-12-28T01:27:34;1.60;99.90
20845;DHT22;10583;49.084;8.646;2023-12-28T01:30:02;1.60;99.90
20845;DHT22;10583;49.084;8.646;2023-12-28T01:32:29;1.60;99.90
20845;DHT22;10583;49.084;8.646;2023-12-28T01:34:55;1.70;99.90
20845;DHT22;10583;49.084;8.646;2023-12-28T01:37:23;1.80;99.90
20845;DHT22;10583;49.084;8.646;2023-12-28T01:39:50;2.00;99.90
20845;DHT22;10583;49.084;8.646;2023-12-28T01:42:16;2.90;99.90
20845;DHT22;10583;49.084;8.646;2023-12-28T01:44:43;3.50;99.90
20845;DHT22;10583;49.084;8.646;2023-12-28T01:47:11;4.10;99.90
20845;DHT22;10583;49.084;8.646;2023-12-28T01:49:38;5.70;99.90
20845;DHT22;10583;49.084;8.646;2023-12-28T01:52:06;6.00;99.90
20845;DHT22;10583;49.084;8.646;2023-12-28T01:54:33;6.20;99.90
20845;DHT22;10583;49.084;8.646;2023-12-28T01:57:02;6.50;99.90
20845;DHT22;10583;49.084;8.646;2023-12-28T01:59:30;7.00;99.90
20845;DHT22;10583;49.084;8.646;2023-12-28T02:01:57;7.00;99.90
20845;DHT22;10583;49.084;8.646;2023-12-28T02:04:25;7.10;99.90
20845;DHT22;10583;49.084;8.646;2023-12-28T02:06:56;7.20;99.90
20845;DHT22;10583;49.084;8.646;2023-12-28T02:09:24;7.50;99.90
20845;DHT22;10583;49.084;8.646;2023-12-28T02:11:50;7.80;99.90
20845;DHT22;10583;49.084;8.646;2023-12-28T02:14:17;7.90;99.90
20845;DHT22;10583;49.084;8.646;2023-12-28T02:16:47;8.00;99.90
20845;DHT22;10583;49.084;8.646;2023-12-28T02:19:21;8.40;99.90
20845;DHT22;10583;49.084;8.646;2023-12-28T02:21:54;8.70;99.90
20845;DHT22;10583;49.084;8.646;2023-12-28T02:24:21;8.70;99.90
20845;DHT22;10583;49.084;8.646;2023-12-28T02:26:49;8.60;99.90
20845;DHT22;10583;49.084;8.646;2023-12-28T02:29:15;8.80;99.90
20845;DHT22;10583;49.084;8.646;2023-12-28T02:31:46;9.00;99.90
20845;DHT22;10583;49.084;8.646;2023-12-28T02:34:21;9.10;99.90
20845;DHT22;10583;49.084;8.646;2023-12-28T02:36:50;9.20;99.90
20845;DHT22;10583;49.084;8.646;2023-12-28T02:39:18;9.20;99.90
20845;DHT22;10583;49.084;8.646;2023-12-28T02:41:47;9.30;99.90
20845;DHT22;10583;49.084;8.646;2023-12-28T02:44:15;9.30;99.90
20845;DHT22;10583;49.084;8.646;2023-12-28T02:46:41;9.30;99.90
20845;DHT22;10583;49.084;8.646;2023-12-28T02:49:08;9.30;99.90
20845;DHT22;10583;49.084;8.646;2023-12-28T02:51:37;9.20;99.90
20845;DHT22;10583;49.084;8.646;2023-12-28T02:54:04;9.50;99.90
20845;DHT22;10583;49.084;8.646;2023-12-28T02:56:30;9.50;99.90
20845;DHT22;10583;49.084;8.646;2023-12-28T02:58:58;9.60;99.90
20845;DHT22;10583;49.084;8.646;2023-12-28T03:01:26;9.90;99.90
20845;DHT22;10583;49.084;8.646;2023-12-28T03:03:52;9.90;99.90
20845;DHT22;10583;49.084;8.646;2023-12-28T03:06:19;10.00;99.90
20845;DHT22;10583;49.084;8.646;2023-12-28T03:08:46;10.10;99.90
20845;DHT22;10583;49.084;8.646;2023-12-28T03:11:12;10.00;99.90
20845;DHT22;10583;49.084;8.646;2023-12-28T03:13:39;10.00;99.90
20845;DHT22;10583;49.084;8.646;2023-12-28T03:16:06;10.00;99.90
20845;DHT22;10583;49.084;8.646;2023-12-28T03:18:34;9.90;99.90
20845;DHT22;10583;49.084;8.646;2023-12-28T03:21:01;9.70;99.90
20845;DHT22;10583;49.084;8.646;2023-12-28T03:23:28;9.60;99.90
20845;DHT22;10583;49.084;8.646;2023-12-28T03:25:54;9.50;99.90
20845;DHT22;10583;49.084;8.646;2023-12-28T03:28:21;9.40;99.90
20845;DHT22;10583;49.084;8.646;2023-12-28T03:30:47;9.30;99.90
20845;DHT22;10583;49.084;8.646;2023-12-28T03:33:14;9.30;99.90
20845;DHT22;10583;49.084;8.646;2023-12-28T03:35:42;9.20;99.90
20845;DHT22;10583;49.084;8.646;2023-12-28T03:38:09;9.10;99.90
20845;DHT22;10583;49.084;8.646;2023-12-28T03:40:35;9.00;99.90
20845;DHT22;10583;49.084;8.646;2023-12-28T03:43:02;9.00;99.90
20845;DHT22;10583;49.084;8.646;2023-12-28T03:45:29;9.00;99.90
20845;DHT22;10583;49.084;8.646;2023-12-28T03:47:56;9.00;99.90
20845;DHT22;10583;49.084;8.646;2023-12-28T03:50:22;9.10;99.90
20845;DHT22;10583;49.084;8.646;2023-12-28T03:52:50;9.20;99.90
20845;DHT22;10583;49.084;8.646;2023-12-28T03:55:17;9.20;99.90
20845;DHT22;10583;49.084;8.646;2023-12-28T03:57:43;9.20;99.90
20845;DHT22;10583;49.084;8.646;2023-12-28T04:00:12;9.20;99.90
20845;DHT22;10583;49.084;8.646;2023-12-28T04:02:40;9.20;99.90
20845;DHT22;10583;49.084;8.646;2023-12-28T04:05:07;9.10;99.90
20845;DHT22;10583;49.084;8.646;2023-12-28T04:07:34;9.10;99.90
20845;DHT22;10583;49.084;8.646;2023-12-28T04:10:02;9.00;99.90
20845;DHT22;10583;49.084;8.646;2023-12-28T04:12:30;8.90;99.90
20845;DHT22;10583;49.084;8.646;2023-12-28T04:14:57;8.80;99.90
20845;DHT22;10583;49.084;8.646;2023-12-28T04:17:23;8.80;99.90
20845;DHT22;10583;49.084;8.646;2023-12-28T04:19:50;8.80;99.90
20845;DHT22;10583;49.084;8.646;2023-12-28T04:22:17;8.80;99.90
20845;DHT22;10583;49.084;8.646;2023-12-28T04:24:43;8.80;99.90
20845;DHT22;10583;49.084;8.646;2023-12-28T04:27:11;8.80;99.90
20845;DHT22;10583;49.084;8.646;2023-12-28T04:29:38;8.70;99.90
20845;DHT22;10583;49.084;8.646;2023-12-28T04:32:05;8.70;99.90
20845;DHT22;10583;49.084;8.646;2023-12-28T04:34:32;8.70;99.90
20845;DHT22;10583;49.084;8.646;2023-12-28T04:36:59;8.70;99.90
20845;DHT22;10583;49.084;8.646;2023-12-28T04:39:25;8.70;99.90
20845;DHT22;10583;49.084;8.646;2023-12-28T04:41:52;8.70;99.90
20845;DHT22;10583;49.084;8.646;2023-12-28T04:44:21;8.60;99.90
20845;DHT22;10583;49.084;8.646;2023-12-28T04:46:48;8.60;99.90
20845;DHT22;10583;49.084;8.646;2023-12-28T04:49:14;8.60;99.90
20845;DHT22;10583;49.084;8.646;2023-12-28T04:51:44;8.70;99.90
20845;DHT22;10583;49.084;8.646;2023-12-28T04:54:10;8.80;99.90
20845;DHT22;10583;49.084;8.646;2023-12-28T04:56:37;8.80;99.90
20845;DHT22;10583;49.084;8.646;2023-12-28T04:59:04;8.80;99.90
20845;DHT22;10583;49.084;8.646;2023-12-28T05:01:32;8.90;99.90
20845;DHT22;10583;49.084;8.646;2023-12-28T05:03:58;8.90;99.90
20845;DHT22;10583;49.084;8.646;2023-12-28T05:06:27;8.90;99.90
20845;DHT22;10583;49.084;8.646;2023-12-28T05:08:54;8.90;99.90
20845;DHT22;10583;49.084;8.646;2023-12-28T05:11:21;8.90;99.90
20845;DHT22;10583;49.084;8.646;2023-12-28T05:13:47;8.90;99.90
20845;DHT22;10583;49.084;8.646;2023-12-28T05:16:14;8.80;99.90
20845;DHT22;10583;49.084;8.646;2023-12-28T05:18:42;8.80;99.90
20845;DHT22;10583;49.084;8.646;2023-12-28T05:21:08;8.70;99.90
20845;DHT22;10583;49.084;8.646;2023-12-28T05:23:35;8.60;99.90
20845;DHT22;10583;49.084;8.646;2023-12-28T05:26:02;8.60;99.90
20845;DHT22;10583;49.084;8.646;2023-12-28T05:28:28;8.50;99.90
20845;DHT22;10583;49.084;8.646;2023-12-28T05:30:55;8.50;99.90
20845;DHT22;10583;49.084;8.646;2023-12-28T05:33:24;8.50;99.90
20845;DHT22;10583;49.084;8.646;2023-12-28T05:35:52;8.50;99.90
20845;DHT22;10583;49.084;8.646;2023-12-28T05:38:19;8.50;99.90
20845;DHT22;10583;49.084;8.646;2023-12-28T05:40:45;8.50;99.90
20845;DHT22;10583;49.084;8.646;2023-12-28T05:43:12;8.50;99.90
20845;DHT22;10583;49.084;8.646;2023-12-28T05:45:39;8.50;99.90
20845;DHT22;10583;49.084;8.646;2023-12-28T05:48:05;8.50;99.90
20845;DHT22;10583;49.084;8.646;2023-12-28T05:50:32;8.50;99.90
20845;DHT22;10583;49.084;8.646;2023-12-28T05:53:00;8.50;99.90
20845;DHT22;10583;49.084;8.646;2023-12-28T05:55:28;8.50;99.90
20845;DHT22;10583;49.084;8.646;2023-12-28T05:57:54;8.50;99.90
20845;DHT22;10583;49.084;8.646;2023-12-28T06:00:21;8.50;99.90
20845;DHT22;10583;49.084;8.646;2023-12-28T06:02:48;8.50;99.90
20845;DHT22;10583;49.084;8.646;2023-12-28T06:05:16;8.50;99.90
20845;DHT22;10583;49.084;8.646;2023-12-28T06:07:43;8.50;99.90
20845;DHT22;10583;49.084;8.646;2023-12-28T06:10:11;8.50;99.90
20845;DHT22;10583;49.084;8.646;2023-12-28T06:12:38;8.50;99.90
20845;DHT22;10583;49.084;8.646;2023-12-28T06:15:06;8.50;99.90
20845;DHT22;10583;49.084;8.646;2023-12-28T06:17:32;8.40;99.90
20845;DHT22;10583;49.084;8.646;2023-12-28T06:19:59;8.40;99.90
20845;DHT22;10583;49.084;8.646;2023-12-28T06:22:26;8.40;99.90
20845;DHT22;10583;49.084;8.646;2023-12-28T06:24:53;8.40;99.90
20845;DHT22;10583;49.084;8.646;2023-12-28T06:27:21;8.40;99.90
20845;DHT22;10583;49.084;8.646;2023-12-28T06:29:48;8.40;99.90
20845;DHT22;10583;49.084;8.646;2023-12-28T06:32:15;8.40;99.90
20845;DHT22;10583;49.084;8.646;2023-12-28T06:34:42;8.30;99.90
20845;DHT22;10583;49.084;8.646;2023-12-28T06:37:08;8.30;99.90
20845;DHT22;10583;49.084;8.646;2023-12-28T06:39:35;8.30;99.90
20845;DHT22;10583;49.084;8.646;2023-12-28T06:42:02;8.20;99.90
20845;DHT22;10583;49.084;8.646;2023-12-28T06:44:33;8.20;99.90
20845;DHT22;10583;49.084;8.646;2023-12-28T06:46:59;8.20;99.90
20845;DHT22;10583;49.084;8.646;2023-12-28T06:49:26;8.20;99.90
20845;DHT22;10583;49.084;8.646;2023-12-28T06:51:53;8.10;99.90
20845;DHT22;10583;49.084;8.646;2023-12-28T06:54:19;8.00;99.90
20845;DHT22;10583;49.084;8.646;2023-12-28T06:56:46;8.00;99.90
20845;DHT22;10583;49.084;8.646;2023-12-28T06:59:13;8.00;99.90
20845;DHT22;10583;49.084;8.646;2023-12-28T07:01:42;8.00;99.90
20845;DHT22;10583;49.084;8.646;2023-12-28T07:04:09;7.90;99.90
20845;DHT22;10583;49.084;8.646;2023-12-28T07:06:36;7.90;99.90
20845;DHT22;10583;49.084;8.646;2023-12-28T07:09:03;7.90;99.90
20845;DHT22;10583;49.084;8.646;2023-12-28T07:11:30;7.80;99.90
20845;DHT22;10583;49.084;8.646;2023-12-28T07:13:56;7.70;99.90
20845;DHT22;10583;49.084;8.646;2023-12-28T07:16:23;7.70;99.90
20845;DHT22;10583;49.084;8.646;2023-12-28T07:18:53;7.60;99.90
20845;DHT22;10583;49.084;8.646;2023-12-28T07:21:19;7.60;99.90
20845;DHT22;10583;49.084;8.646;2023-12-28T07:23:46;7.60;99.90
20845;DHT22;10583;49.084;8.646;2023-12-28T07:26:15;7.60;99.90
20845;DHT22;10583;49.084;8.646;2023-12-28T07:28:42;7.60;99.90
20845;DHT22;10583;49.084;8.646;2023-12-28T07:31:10;7.60;99.90
20845;DHT22;10583;49.084;8.646;2023-12-28T07:33:37;7.50;99.90
20845;DHT22;10583;49.084;8.646;2023-12-28T07:36:05;7.50;99.90
20845;DHT22;10583;49.084;8.646;2023-12-28T07:38:32;7.50;99.90
20845;DHT22;10583;49.084;8.646;2023-12-28T07:40:58;7.50;99.90
20845;DHT22;10583;49.084;8.646;2023-12-28T07:43:25;7.50;99.90
20845;DHT22;10583;49.084;8.646;2023-12-28T07:45:52;7.50;99.90
20845;DHT22;10583;49.084;8.646;2023-12-28T07:48:18;7.50;99.90
20845;DHT22;10583;49.084;8.646;2023-12-28T07:50:45;7.60;99.90
20845;DHT22;10583;49.084;8.646;2023-12-28T07:53:13;7.60;99.90
20845;DHT22;10583;49.084;8.646;2023-12-28T07:55:40;7.60;99.90
20845;DHT22;10583;49.084;8.646;2023-12-28T07:58:07;7.60;99.90
20845;DHT22;10583;49.084;8.646;2023-12-28T08:00:33;7.60;99.90
20845;DHT22;10583;49.084;8.646;2023-12-28T08:03:00;7.70;99.90
20845;DHT22;10583;49.084;8.646;2023-12-28T08:05:26;7.70;99.90
20845;DHT22;10583;49.084;8.646;2023-12-28T08:07:53;7.70;99.90
20845;DHT22;10583;49.084;8.646;2023-12-28T08:10:21;7.70;99.90
20845;DHT22;10583;49.084;8.646;2023-12-28T08:12:48;7.60;99.90
20845;DHT22;10583;49.084;8.646;2023-12-28T08:15:14;7.60;99.90
20845;DHT22;10583;49.084;8.646;2023-12-28T08:17:41;7.60;99.90
20845;DHT22;10583;49.084;8.646;2023-12-28T08:20:08;7.50;99.90
20845;DHT22;10583;49.084;8.646;2023-12-28T08:22:35;7.50;99.90
20845;DHT22;10583;49.084;8.646;2023-12-28T08:25:02;7.50;99.90
20845;DHT22;10583;49.084;8.646;2023-12-28T08:27:30;7.50;99.90
20845;DHT22;10583;49.084;8.646;2023-12-28T08:29:56;7.60;99.90
20845;DHT22;10583;49.084;8.646;2023-12-28T08:32:23;7.60;99.90
20845;DHT22;10583;49.084;8.646;2023-12-28T08:34:49;7.60;99.90
20845;DHT22;10583;49.084;8.646;2023-12-28T08:37:16;7.60;99.90
20845;DHT22;10583;49.084;8.646;2023-12-28T08:39:43;7.60;99.90
20845;DHT22;10583;49.084;8.646;2023-12-28T08:42:09;7.70;99.90
20845;DHT22;10583;49.084;8.646;2023-12-28T08:44:37;7.70;99.90
20845;DHT22;10583;49.084;8.646;2023-12-28T08:47:04;7.70;99.90
20845;DHT22;10583;49.084;8.646;2023-12-28T08:49:31;7.80;99.90
20845;DHT22;10583;49.084;8.646;2023-12-28T08:51:58;7.80;99.90
20845;DHT22;10583;49.084;8.646;2023-12-28T08:54:25;7.80;99.90
20845;DHT22;10583;49.084;8.646;2023-12-28T08:56:51;7.80;99.90
20845;DHT22;10583;49.084;8.646;2023-12-28T08:59:18;7.80;99.90
20845;DHT22;10583;49.084;8.646;2023-12-28T09:01:46;7.80;99.90
20845;DHT22;10583;49.084;8.646;2023-12-28T09:04:13;7.80;99.90
20845;DHT22;10583;49.084;8.646;2023-12-28T09:06:40;7.80;99.90
20845;DHT22;10583;49.084;8.646;2023-12-28T09:09:07;7.80;99.90
20845;DHT22;10583;49.084;8.646;2023-12-28T09:11:34;7.90;99.90
20845;DHT22;10583;49.084;8.646;2023-12-28T09:14:01;7.80;99.90
20845;DHT22;10583;49.084;8.646;2023-12-28T09:16:28;7.90;99.90
20845;DHT22;10583;49.084;8.646;2023-12-28T09:18:56;7.90;99.90
20845;DHT22;10583;49.084;8.646;2023-12-28T09:21:22;7.90;99.90
20845;DHT22;10583;49.084;8.646;2023-12-28T09:23:51;7.90;99.90
20845;DHT22;10583;49.084;8.646;2023-12-28T09:26:17;7.90;99.90
20845;DHT22;10583;49.084;8.646;2023-12-28T09:28:44;8.00;99.90
20845;DHT22;10583;49.084;8.646;2023-12-28T09:31:11;8.00;99.90
20845;DHT22;10583;49.084;8.646;2023-12-28T09:33:38;8.00;99.90
20845;DHT22;10583;49.084;8.646;2023-12-28T09:36:06;8.00;99.90
20845;DHT22;10583;49.084;8.646;2023-12-28T09:38:33;8.00;99.90
20845;DHT22;10583;49.084;8.646;2023-12-28T09:41:07;8.00;99.90
20845;DHT22;10583;49.084;8.646;2023-12-28T09:43:41;8.00;99.90
20845;DHT22;10583;49.084;8.646;2023-12-28T09:46:12;7.90;99.90
20845;DHT22;10583;49.084;8.646;2023-12-28T09:48:38;8.00;99.90
20845;DHT22;10583;49.084;8.646;2023-12-28T09:51:06;8.00;99.90
20845;DHT22;10583;49.084;8.646;2023-12-28T09:53:34;8.00;99.90
20845;DHT22;10583;49.084;8.646;2023-12-28T09:56:02;8.00;99.90
20845;DHT22;10583;49.084;8.646;2023-12-28T09:58:29;8.00;99.90
20845;DHT22;10583;49.084;8.646;2023-12-28T10:00:58;8.00;99.90
20845;DHT22;10583;49.084;8.646;2023-12-28T10:03:25;8.00;99.90
20845;DHT22;10583;49.084;8.646;2023-12-28T10:05:52;8.00;99.90
20845;DHT22;10583;49.084;8.646;2023-12-28T10:08:20;8.10;99.90
20845;DHT22;10583;49.084;8.646;2023-12-28T10:10:47;8.20;99.90
20845;DHT22;10583;49.084;8.646;2023-12-28T10:13:16;8.30;99.90
20845;DHT22;10583;49.084;8.646;2023-12-28T10:15:43;8.30;99.90
20845;DHT22;10583;49.084;8.646;2023-12-28T10:18:10;8.40;99.90
20845;DHT22;10583;49.084;8.646;2023-12-28T10:20:37;8.40;99.90
20845;DHT22;10583;49.084;8.646;2023-12-28T10:23:04;8.40;99.90
20845;DHT22;10583;49.084;8.646;2023-12-28T10:25:32;8.50;99.90
20845;DHT22;10583;49.084;8.646;2023-12-28T10:28:05;8.50;99.90
20845;DHT22;10583;49.084;8.646;2023-12-28T10:30:32;8.50;99.90
20845;DHT22;10583;49.084;8.646;2023-12-28T10:32:58;8.50;99.90
20845;DHT22;10583;49.084;8.646;2023-12-28T10:35:25;8.60;99.90
20845;DHT22;10583;49.084;8.646;2023-12-28T10:37:53;8.60;99.90
20845;DHT22;10583;49.084;8.646;2023-12-28T10:40:21;8.60;99.90
20845;DHT22;10583;49.084;8.646;2023-12-28T10:42:52;8.70;99.90
20845;DHT22;10583;49.084;8.646;2023-12-28T10:45:25;8.70;99.90
20845;DHT22;10583;49.084;8.646;2023-12-28T10:48:04;8.60;99.90
20845;DHT22;10583;49.084;8.646;2023-12-28T10:50:39;8.70;99.90
20845;DHT22;10583;49.084;8.646;2023-12-28T10:53:15;8.70;99.90
20845;DHT22;10583;49.084;8.646;2023-12-28T10:55:50;8.70;99.90
20845;DHT22;10583;49.084;8.646;2023-12-28T10:58:26;8.70;99.90
20845;DHT22;10583;49.084;8.646;2023-12-28T11:00:59;8.70;99.90
20845;DHT22;10583;49.084;8.646;2023-12-28T11:03:34;8.70;99.90
20845;DHT22;10583;49.084;8.646;2023-12-28T11:06:02;8.70;99.90
20845;DHT22;10583;49.084;8.646;2023-12-28T11:08:29;8.70;99.90
20845;DHT22;10583;49.084;8.646;2023-12-28T11:10:57;8.80;99.90
20845;DHT22;10583;49.084;8.646;2023-12-28T11:13:28;8.80;99.90
20845;DHT22;10583;49.084;8.646;2023-12-28T11:15:56;8.80;99.90
20845;DHT22;10583;49.084;8.646;2023-12-28T11:18:24;8.80;99.90
20845;DHT22;10583;49.084;8.646;2023-12-28T11:20:53;8.90;99.90
20845;DHT22;10583;49.084;8.646;2023-12-28T11:23:20;8.90;99.90
20845;DHT22;10583;49.084;8.646;2023-12-28T11:25:47;8.90;99.90
20845;DHT22;10583;49.084;8.646;2023-12-28T11:28:13;8.90;99.90
20845;DHT22;10583;49.084;8.646;2023-12-28T11:30:43;8.90;99.90
20845;DHT22;10583;49.084;8.646;2023-12-28T11:33:10;8.90;99.90
20845;DHT22;10583;49.084;8.646;2023-12-28T11:35:38;8.90;99.90
20845;DHT22;10583;49.084;8.646;2023-12-28T11:38:08;8.90;99.90
20845;DHT22;10583;49.084;8.646;2023-12-28T11:40:42;8.90;99.90
20845;DHT22;10583;49.084;8.646;2023-12-28T11:43:17;8.90;99.90
20845;DHT22;10583;49.084;8.646;2023-12-28T11:45:50;8.90;99.90
20845;DHT22;10583;49.084;8.646;2023-12-28T11:48:24;9.00;99.90
20845;DHT22;10583;49.084;8.646;2023-12-28T11:50:54;9.00;99.90
20845;DHT22;10583;49.084;8.646;2023-12-28T11:53:21;8.90;99.90
20845;DHT22;10583;49.084;8.646;2023-12-28T11:55:48;8.90;99.90
20845;DHT22;10583;49.084;8.646;2023-12-28T11:58:16;8.90;99.90
20845;DHT22;10583;49.084;8.646;2023-12-28T12:00:42;8.90;99.90
20845;DHT22;10583;49.084;8.646;2023-12-28T12:03:11;8.90;99.90
20845;DHT22;10583;49.084;8.646;2023-12-28T12:05:38;8.80;99.90
20845;DHT22;10583;49.084;8.646;2023-12-28T12:08:05;8.80;99.90
20845;DHT22;10583;49.084;8.646;2023-12-28T12:10:34;8.80;99.90
20845;DHT22;10583;49.084;8.646;2023-12-28T12:13:00;8.80;99.90
20845;DHT22;10583;49.084;8.646;2023-12-28T12:15:28;8.80;99.90
20845;DHT22;10583;49.084;8.646;2023-12-28T12:17:55;8.80;99.90
20845;DHT22;10583;49.084;8.646;2023-12-28T12:20:23;8.80;99.90
20845;DHT22;10583;49.084;8.646;2023-12-28T12:22:51;8.90;99.90
20845;DHT22;10583;49.084;8.646;2023-12-28T12:25:18;8.90;99.90
20845;DHT22;10583;49.084;8.646;2023-12-28T12:27:46;8.90;99.90
20845;DHT22;10583;49.084;8.646;2023-12-28T12:30:13;8.90;99.90
20845;DHT22;10583;49.084;8.646;2023-12-28T12:32:39;8.90;99.90
20845;DHT22;10583;49.084;8.646;2023-12-28T12:35:09;8.80;99.90
20845;DHT22;10583;49.084;8.646;2023-12-28T12:37:37;8.90;99.90
20845;DHT22;10583;49.084;8.646;2023-12-28T12:40:05;8.90;99.90
20845;DHT22;10583;49.084;8.646;2023-12-28T12:42:32;8.80;99.90
20845;DHT22;10583;49.084;8.646;2023-12-28T12:44:59;8.80;99.90
20845;DHT22;10583;49.084;8.646;2023-12-28T12:47:26;8.80;99.90
20845;DHT22;10583;49.084;8.646;2023-12-28T12:49:58;8.80;99.90
20845;DHT22;10583;49.084;8.646;2023-12-28T12:52:25;8.80;99.90
20845;DHT22;10583;49.084;8.646;2023-12-28T12:54:56;8.80;99.90
20845;DHT22;10583;49.084;8.646;2023-12-28T12:57:24;8.80;99.90
20845;DHT22;10583;49.084;8.646;2023-12-28T12:59:52;8.80;99.90
20845;DHT22;10583;49.084;8.646;2023-12-28T13:02:18;8.80;99.90
20845;DHT22;10583;49.084;8.646;2023-12-28T13:04:45;8.80;99.90
20845;DHT22;10583;49.084;8.646;2023-12-28T13:07:12;8.90;99.90
20845;DHT22;10583;49.084;8.646;2023-12-28T13:09:38;8.90;99.90
20845;DHT22;10583;49.084;8.646;2023-12-28T13:12:07;8.90;99.90
20845;DHT22;10583;49.084;8.646;2023-12-28T13:14:34;8.80;99.90
20845;DHT22;10583;49.084;8.646;2023-12-28T13:17:01;8.80;99.90
20845;DHT22;10583;49.084;8.646;2023-12-28T13:19:28;8.80;99.90
20845;DHT22;10583;49.084;8.646;2023-12-28T13:21:54;8.80;99.90
20845;DHT22;10583;49.084;8.646;2023-12-28T13:24:21;8.80;99.90
20845;DHT22;10583;49.084;8.646;2023-12-28T13:26:48;8.80;99.90
20845;DHT22;10583;49.084;8.646;2023-12-28T13:29:16;8.80;99.90
20845;DHT22;10583;49.084;8.646;2023-12-28T13:31:43;8.80;99.90
20845;DHT22;10583;49.084;8.646;2023-12-28T13:34:12;8.90;99.90
20845;DHT22;10583;49.084;8.646;2023-12-28T13:36:39;8.90;99.90
20845;DHT22;10583;49.084;8.646;2023-12-28T13:39:06;8.90;99.90
20845;DHT22;10583;49.084;8.646;2023-12-28T13:41:36;8.90;99.90
20845;DHT22;10583;49.084;8.646;2023-12-28T13:44:03;8.90;99.90
20845;DHT22;10583;49.084;8.646;2023-12-28T13:46:34;8.90;99.90
20845;DHT22;10583;49.084;8.646;2023-12-28T13:49:01;8.90;99.90
20845;DHT22;10583;49.084;8.646;2023-12-28T13:51:29;8.90;99.90
20845;DHT22;10583;49.084;8.646;2023-12-28T13:53:56;8.90;99.90
20845;DHT22;10583;49.084;8.646;2023-12-28T13:56:22;8.90;99.90
20845;DHT22;10583;49.084;8.646;2023-12-28T13:58:49;8.90;99.90
20845;DHT22;10583;49.084;8.646;2023-12-28T14:01:16;8.90;99.90
20845;DHT22;10583;49.084;8.646;2023-12-28T14:03:44;8.90;99.90
20845;DHT22;10583;49.084;8.646;2023-12-28T14:06:13;8.80;99.90
20845;DHT22;10583;49.084;8.646;2023-12-28T14:08:40;8.80;99.90
20845;DHT22;10583;49.084;8.646;2023-12-28T14:11:06;8.80;99.90
20845;DHT22;10583;49.084;8.646;2023-12-28T14:13:33;8.70;99.90
20845;DHT22;10583;49.084;8.646;2023-12-28T14:16:00;8.70;99.90
20845;DHT22;10583;49.084;8.646;2023-12-28T14:18:27;8.70;99.90
20845;DHT22;10583;49.084;8.646;2023-12-28T14:20:55;8.70;99.90
20845;DHT22;10583;49.084;8.646;2023-12-28T14:23:22;8.70;99.90
20845;DHT22;10583;49.084;8.646;2023-12-28T14:25:50;8.70;99.90
20845;DHT22;10583;49.084;8.646;2023-12-28T14:28:19;8.70;99.90
20845;DHT22;10583;49.084;8.646;2023-12-28T14:30:46;8.70;99.90
20845;DHT22;10583;49.084;8.646;2023-12-28T14:33:13;8.70;99.90
20845;DHT22;10583;49.084;8.646;2023-12-28T14:35:41;8.70;99.90
20845;DHT22;10583;49.084;8.646;2023-12-28T14:38:09;8.70;99.90
20845;DHT22;10583;49.084;8.646;2023-12-28T14:40:36;8.60;99.90
20845;DHT22;10583;49.084;8.646;2023-12-28T14:43:03;8.60;99.90
20845;DHT22;10583;49.084;8.646;2023-12-28T14:45:29;8.60;99.90
20845;DHT22;10583;49.084;8.646;2023-12-28T14:47:56;8.70;99.90
20845;DHT22;10583;49.084;8.646;2023-12-28T14:50:22;8.70;99.90
20845;DHT22;10583;49.084;8.646;2023-12-28T14:52:49;8.70;99.90
20845;DHT22;10583;49.084;8.646;2023-12-28T14:55:17;8.80;99.90
20845;DHT22;10583;49.084;8.646;2023-12-28T14:57:44;8.80;99.90
20845;DHT22;10583;49.084;8.646;2023-12-28T15:00:11;8.80;99.90
20845;DHT22;10583;49.084;8.646;2023-12-28T15:02:38;8.90;99.90
20845;DHT22;10583;49.084;8.646;2023-12-28T15:05:05;8.90;99.90
20845;DHT22;10583;49.084;8.646;2023-12-28T15:07:34;8.90;99.90
20845;DHT22;10583;49.084;8.646;2023-12-28T15:10:02;8.90;99.90
20845;DHT22;10583;49.084;8.646;2023-12-28T15:12:30;8.90;99.90
20845;DHT22;10583;49.084;8.646;2023-12-28T15:14:58;8.80;99.90
20845;DHT22;10583;49.084;8.646;2023-12-28T15:17:25;8.80;99.90
20845;DHT22;10583;49.084;8.646;2023-12-28T15:19:52;8.80;99.90
20845;DHT22;10583;49.084;8.646;2023-12-28T15:22:19;8.80;99.90
20845;DHT22;10583;49.084;8.646;2023-12-28T15:24:46;8.80;99.90
20845;DHT22;10583;49.084;8.646;2023-12-28T15:27:13;8.80;99.90
20845;DHT22;10583;49.084;8.646;2023-12-28T15:29:41;8.80;99.90
20845;DHT22;10583;49.084;8.646;2023-12-28T15:32:08;8.70;99.90
20845;DHT22;10583;49.084;8.646;2023-12-28T15:34:34;8.70;99.90
20845;DHT22;10583;49.084;8.646;2023-12-28T15:37:02;8.70;99.90
20845;DHT22;10583;49.084;8.646;2023-12-28T15:39:28;8.70;99.90
20845;DHT22;10583;49.084;8.646;2023-12-28T15:41:55;8.80;99.90
20845;DHT22;10583;49.084;8.646;2023-12-28T15:44:22;8.70;99.90
20845;DHT22;10583;49.084;8.646;2023-12-28T15:46:50;8.80;99.90